Time;durP1;ratioP1;P1;durP2;ratioP2;P2;SDS_P1;SDS_P2;PMS_P1;PMS_P2;Temp;Humidity;BMP_temperature;BMP_pressure;BME280_temperature;BME280_humidity;BME280_pressure;Samples;Min_cycle;Max_cycle;Signal;HPM_P1;HPM_P2
2020/12/02 00:04:16;;;;;;;21.47;12.47;;;;;;;;;;10547642;28;20203;-74
2020/12/02 00:09:19;;;;;;;28.30;14.73;;;;;;;;;;10550701;28;20223;-73
2020/12/02 00:14:23;;;;;;;28.50;15.43;;;;;;;;;;10543482;28;20678;-72
2020/12/02 00:19:25;;;;;;;26.47;14.43;;;;;;;;;;10541369;28;20215;-71
2020/12/02 00:24:27;;;;;;;25.30;13.50;;;;;;;;;;10549178;28;20691;-73
2020/12/02 00:29:29;;;;;;;26.87;14.57;;;;;;;;;;10566892;28;20740;-74
2020/12/02 00:34:30;;;;;;;28.30;14.77;;;;;;;;;;10538051;28;20207;-72
2020/12/02 00:39:32;;;;;;;26.37;14.40;;;;;;;;;;10543585;28;20220;-72
2020/12/02 00:44:34;;;;;;;29.83;16.40;;;;;;;;;;10547604;28;20206;-72
2020/12/02 00:49:36;;;;;;;30.77;17.60;;;;;;;;;;10556604;28;20226;-74
2020/12/02 00:54:38;;;;;;;34.03;18.47;;;;;;;;;;10556789;28;20650;-73
2020/12/02 00:59:43;;;;;;;36.73;19.73;;;;;;;;;;10537588;28;20576;-70
2020/12/02 01:04:45;;;;;;;36.67;19.57;;;;;;;;;;10541871;28;20226;-72
2020/12/02 01:09:47;;;;;;;34.10;18.97;;;;;;;;;;10539737;28;20215;-74
2020/12/02 01:14:49;;;;;;;35.67;19.70;;;;;;;;;;10545649;28;20195;-74
2020/12/02 01:19:51;;;;;;;36.80;20.50;;;;;;;;;;10549674;28;20321;-74
2020/12/02 01:24:55;;;;;;;34.87;19.13;;;;;;;;;;10549664;28;20210;-75
2020/12/02 01:29:57;;;;;;;35.43;19.40;;;;;;;;;;10550584;28;20566;-73
2020/12/02 01:34:58;;;;;;;34.10;18.50;;;;;;;;;;10560454;28;20292;-74
2020/12/02 01:40:04;;;;;;;33.53;17.53;;;;;;;;;;10549603;28;20700;-71
2020/12/02 01:45:16;;;;;;;28.37;15.93;;;;;;;;;;10544675;28;20563;-73
2020/12/02 01:50:22;;;;;;;27.77;16.27;;;;;;;;;;10558288;28;20358;-74
2020/12/02 01:55:27;;;;;;;28.13;15.23;;;;;;;;;;10547336;28;20766;-72
2020/12/02 02:00:32;;;;;;;27.03;15.07;;;;;;;;;;10538479;28;20234;-73
2020/12/02 02:05:37;;;;;;;23.93;14.13;;;;;;;;;;10559241;28;20203;-72
2020/12/02 02:10:39;;;;;;;25.90;14.93;;;;;;;;;;10555932;28;20219;-72
2020/12/02 02:15:43;;;;;;;30.57;14.23;;;;;;;;;;10568192;28;20628;-71
2020/12/02 02:20:45;;;;;;;26.30;14.47;;;;;;;;;;10563435;28;20250;-72
2020/12/02 02:25:57;;;;;;;28.17;14.90;;;;;;;;;;10551281;28;20207;-72
2020/12/02 02:30:58;;;;;;;29.77;15.63;;;;;;;;;;10556054;28;20207;-72
2020/12/02 02:36:00;;;;;;;28.07;15.73;;;;;;;;;;10551729;28;20639;-73
2020/12/02 02:41:02;;;;;;;28.50;14.67;;;;;;;;;;10556263;28;20215;-74
2020/12/02 02:46:04;;;;;;;27.57;15.67;;;;;;;;;;10554556;28;20238;-73
2020/12/02 02:51:06;;;;;;;27.77;16.20;;;;;;;;;;10569150;28;20751;-73
2020/12/02 02:56:10;;;;;;;27.67;15.53;;;;;;;;;;10558660;28;20214;-72
2020/12/02 03:01:12;;;;;;;28.90;15.33;;;;;;;;;;10559264;28;20223;-70
2020/12/02 03:06:13;;;;;;;30.57;15.97;;;;;;;;;;10545791;28;20195;-71
2020/12/02 03:11:16;;;;;;;32.13;16.47;;;;;;;;;;10549563;28;20226;-72
2020/12/02 03:16:21;;;;;;;34.40;16.60;;;;;;;;;;10546215;28;20286;-73
2020/12/02 03:21:23;;;;;;;30.10;15.87;;;;;;;;;;10552705;28;20215;-72
2020/12/02 03:26:26;;;;;;;28.17;15.00;;;;;;;;;;10555020;28;20287;-73
2020/12/02 03:31:27;;;;;;;32.73;16.23;;;;;;;;;;10542344;28;20234;-72
2020/12/02 03:36:29;;;;;;;29.37;15.73;;;;;;;;;;10551044;28;20210;-71
2020/12/02 03:41:31;;;;;;;29.43;15.30;;;;;;;;;;10547345;28;20321;-72
2020/12/02 03:46:33;;;;;;;32.33;17.33;;;;;;;;;;10549222;28;20200;-72
2020/12/02 03:51:34;;;;;;;30.17;16.63;;;;;;;;;;10543015;28;20217;-71
2020/12/02 03:56:37;;;;;;;30.47;16.20;;;;;;;;;;10566779;28;20227;-73
2020/12/02 04:01:38;;;;;;;30.77;15.97;;;;;;;;;;10553812;28;20226;-75
2020/12/02 04:06:40;;;;;;;30.57;16.57;;;;;;;;;;10549774;28;20203;-72
2020/12/02 04:11:42;;;;;;;32.00;17.07;;;;;;;;;;10551206;28;20215;-74
2020/12/02 04:16:43;;;;;;;33.63;17.27;;;;;;;;;;10549394;28;20210;-74
2020/12/02 04:21:45;;;;;;;34.80;18.53;;;;;;;;;;10555139;28;20253;-72
2020/12/02 04:26:47;;;;;;;33.97;17.10;;;;;;;;;;10559774;28;20278;-72
2020/12/02 04:31:49;;;;;;;37.20;18.57;;;;;;;;;;10546354;28;20226;-72
2020/12/02 04:36:50;;;;;;;33.83;16.90;;;;;;;;;;10548328;28;20588;-72
2020/12/02 04:41:53;;;;;;;35.33;16.63;;;;;;;;;;10543648;28;20295;-73
2020/12/02 04:46:55;;;;;;;31.67;13.70;;;;;;;;;;10546505;28;20234;-73
2020/12/02 04:51:58;;;;;;;30.20;14.80;;;;;;;;;;10541644;28;20225;-73
2020/12/02 04:57:00;;;;;;;35.80;16.17;;;;;;;;;;10541978;28;20219;-74
2020/12/02 05:02:02;;;;;;;40.17;16.63;;;;;;;;;;10547951;28;20257;-71
2020/12/02 05:07:13;;;;;;;38.60;17.17;;;;;;;;;;10547859;28;20249;-73
2020/12/02 05:12:22;;;;;;;43.73;18.40;;;;;;;;;;10547105;28;20306;-72
2020/12/02 05:17:25;;;;;;;37.37;17.20;;;;;;;;;;10547196;28;20298;-72
2020/12/02 05:22:26;;;;;;;42.60;18.33;;;;;;;;;;10553356;28;20325;-72
2020/12/02 05:27:31;;;;;;;39.73;17.57;;;;;;;;;;10539191;28;20226;-71
2020/12/02 05:32:32;;;;;;;37.33;16.27;;;;;;;;;;10542393;28;20613;-72
2020/12/02 05:37:37;;;;;;;35.30;16.83;;;;;;;;;;10543102;28;20213;-72
2020/12/02 05:42:41;;;;;;;39.37;17.13;;;;;;;;;;10544185;28;20220;-72
2020/12/02 05:47:43;;;;;;;33.10;15.43;;;;;;;;;;10549257;28;20228;-73
2020/12/02 05:52:45;;;;;;;35.10;15.90;;;;;;;;;;10552315;28;20206;-73
2020/12/02 05:57:54;;;;;;;37.80;16.90;;;;;;;;;;10548831;28;20227;-72
2020/12/02 06:02:56;;;;;;;34.47;16.50;;;;;;;;;;10547602;28;20220;-71
2020/12/02 06:07:59;;;;;;;36.53;18.10;;;;;;;;;;10539811;28;20599;-74
2020/12/02 06:13:01;;;;;;;39.50;19.50;;;;;;;;;;10540607;28;20200;-76
2020/12/02 06:18:15;;;;;;;38.80;17.00;;;;;;;;;;10554200;28;20306;-73
2020/12/02 06:23:16;;;;;;;37.80;17.90;;;;;;;;;;10565519;28;20215;-71
2020/12/02 06:28:36;;;;;;;37.20;18.03;;;;;;;;;;10557079;28;20245;-72
2020/12/02 06:33:39;;;;;;;37.10;17.43;;;;;;;;;;10555155;28;20206;-74
2020/12/02 06:38:40;;;;;;;37.03;17.97;;;;;;;;;;10554713;28;20246;-73
2020/12/02 06:43:45;;;;;;;34.07;17.33;;;;;;;;;;10557903;28;20219;-72
2020/12/02 06:48:49;;;;;;;31.80;13.47;;;;;;;;;;10548158;28;20224;-70
2020/12/02 06:53:53;;;;;;;27.83;10.70;;;;;;;;;;10562488;28;20235;-72
2020/12/02 06:59:01;;;;;;;34.73;16.73;;;;;;;;;;10546158;28;20226;-71
2020/12/02 07:04:06;;;;;;;39.60;18.77;;;;;;;;;;10558928;28;20311;-73
2020/12/02 07:09:10;;;;;;;36.13;17.40;;;;;;;;;;10551151;28;20227;-72
2020/12/02 07:14:14;;;;;;;37.73;17.73;;;;;;;;;;10551277;28;20586;-73
2020/12/02 07:19:19;;;;;;;40.30;18.00;;;;;;;;;;10546786;28;20707;-75
2020/12/02 07:24:22;;;;;;;41.27;19.87;;;;;;;;;;10562472;28;20215;-75
2020/12/02 07:29:24;;;;;;;39.13;18.80;;;;;;;;;;10555453;28;20223;-75
2020/12/02 07:34:27;;;;;;;36.03;18.27;;;;;;;;;;10556258;28;20638;-74
2020/12/02 07:39:29;;;;;;;40.63;20.63;;;;;;;;;;10566917;28;20306;-75
2020/12/02 07:44:36;;;;;;;42.73;21.23;;;;;;;;;;10569360;28;20215;-74
2020/12/02 07:49:42;;;;;;;36.63;17.40;;;;;;;;;;10559785;28;20721;-74
2020/12/02 07:54:44;;;;;;;39.37;19.83;;;;;;;;;;10560292;28;20207;-74
2020/12/02 07:59:47;;;;;;;41.57;20.90;;;;;;;;;;10564991;28;20216;-74
2020/12/02 08:04:52;;;;;;;41.20;19.60;;;;;;;;;;10574968;28;20210;-74
2020/12/02 08:09:59;;;;;;;37.17;18.20;;;;;;;;;;10569345;28;20306;-75
2020/12/02 08:15:07;;;;;;;39.40;18.97;;;;;;;;;;10579691;28;20211;-74
2020/12/02 08:20:22;;;;;;;37.47;18.37;;;;;;;;;;10557055;28;20227;-75
2020/12/02 08:25:25;;;;;;;41.40;19.27;;;;;;;;;;10555692;28;20248;-74
2020/12/02 08:30:28;;;;;;;41.83;19.40;;;;;;;;;;10558065;28;20206;-72
2020/12/02 08:35:33;;;;;;;37.33;18.07;;;;;;;;;;10557970;28;20191;-74
2020/12/02 08:40:38;;;;;;;29.40;15.27;;;;;;;;;;10555934;28;20673;-73
2020/12/02 08:45:39;;;;;;;30.43;14.50;;;;;;;;;;10554994;28;20199;-76
2020/12/02 08:50:41;;;;;;;32.20;14.73;;;;;;;;;;10553651;28;20230;-74
2020/12/02 08:55:44;;;;;;;31.00;15.00;;;;;;;;;;10554001;28;20206;-72
2020/12/02 09:00:45;;;;;;;34.20;16.17;;;;;;;;;;10551427;28;20223;-74
2020/12/02 09:05:47;;;;;;;34.87;16.53;;;;;;;;;;10547576;28;20263;-74
2020/12/02 09:10:51;;;;;;;34.17;16.03;;;;;;;;;;10555162;28;20305;-74
2020/12/02 09:15:52;;;;;;;32.57;15.23;;;;;;;;;;10552873;28;20195;-74
2020/12/02 09:20:54;;;;;;;31.83;16.40;;;;;;;;;;10555468;28;20229;-73
2020/12/02 09:25:56;;;;;;;31.03;14.10;;;;;;;;;;10547417;28;20195;-72
2020/12/02 09:30:58;;;;;;;31.90;15.57;;;;;;;;;;10541228;28;20246;-71
2020/12/02 09:35:59;;;;;;;31.47;15.70;;;;;;;;;;10559069;28;20229;-74
2020/12/02 09:41:15;;;;;;;31.13;15.03;;;;;;;;;;10553295;28;20226;-74
2020/12/02 09:46:18;;;;;;;30.93;15.27;;;;;;;;;;10554277;28;20198;-73
2020/12/02 09:51:21;;;;;;;31.53;15.07;;;;;;;;;;10552324;28;20222;-74
2020/12/02 09:56:25;;;;;;;29.50;12.80;;;;;;;;;;10561207;28;20218;-75
2020/12/02 10:01:29;;;;;;;28.73;13.53;;;;;;;;;;10558192;28;20230;-74
2020/12/02 10:06:42;;;;;;;30.70;14.87;;;;;;;;;;10560054;28;20535;-74
2020/12/02 10:11:49;;;;;;;29.77;13.80;;;;;;;;;;10556564;28;20218;-74
2020/12/02 10:16:55;;;;;;;27.93;14.10;;;;;;;;;;10559978;28;20222;-72
2020/12/02 10:22:02;;;;;;;28.90;14.90;;;;;;;;;;10564728;28;20219;-72
2020/12/02 10:27:22;;;;;;;34.80;16.47;;;;;;;;;;10565180;28;20771;-72
2020/12/02 10:32:30;;;;;;;30.07;16.10;;;;;;;;;;10557889;28;20188;-74
2020/12/02 10:37:34;;;;;;;32.00;14.73;;;;;;;;;;10554107;28;20215;-74
2020/12/02 10:42:42;;;;;;;27.67;14.77;;;;;;;;;;10556894;28;20223;-75
2020/12/02 10:48:01;;;;;;;29.40;14.97;;;;;;;;;;10553608;28;20215;-70
2020/12/02 10:53:04;;;;;;;34.10;15.43;;;;;;;;;;10556586;28;20198;-72
2020/12/02 10:58:18;;;;;;;27.77;13.43;;;;;;;;;;10554691;28;20557;-72
2020/12/02 11:03:21;;;;;;;33.20;16.03;;;;;;;;;;10564647;28;20218;-73
2020/12/02 11:08:31;;;;;;;28.80;14.37;;;;;;;;;;10551328;28;20223;-73
2020/12/02 11:13:39;;;;;;;27.47;14.23;;;;;;;;;;10554533;28;20229;-73
2020/12/02 11:18:47;;;;;;;29.37;14.77;;;;;;;;;;10549368;28;20629;-73
2020/12/02 11:23:59;;;;;;;32.57;15.87;;;;;;;;;;10551289;28;20231;-73
2020/12/02 11:29:03;;;;;;;29.37;15.87;;;;;;;;;;10556151;28;20230;-72
2020/12/02 11:34:11;;;;;;;31.07;15.70;;;;;;;;;;10551442;28;20193;-72
2020/12/02 11:39:24;;;;;;;28.97;14.87;;;;;;;;;;10566570;28;20579;-72
2020/12/02 11:44:34;;;;;;;29.23;14.50;;;;;;;;;;10558282;28;20215;-73
2020/12/02 11:49:37;;;;;;;35.00;17.43;;;;;;;;;;10552743;28;20269;-73
2020/12/02 11:54:40;;;;;;;31.83;14.87;;;;;;;;;;10559638;28;20207;-71
2020/12/02 11:59:42;;;;;;;33.00;15.30;;;;;;;;;;10552296;28;20230;-72
2020/12/02 12:04:52;;;;;;;31.50;16.40;;;;;;;;;;10558418;28;20219;-72
2020/12/02 12:09:58;;;;;;;32.03;15.83;;;;;;;;;;10552764;28;20273;-72
2020/12/02 12:15:03;;;;;;;26.23;15.03;;;;;;;;;;10547904;28;20198;-72
2020/12/02 12:20:07;;;;;;;29.10;15.93;;;;;;;;;;10544146;28;20696;-72
2020/12/02 12:25:10;;;;;;;28.07;14.63;;;;;;;;;;10556161;28;20242;-72
2020/12/02 12:30:14;;;;;;;28.00;14.93;;;;;;;;;;10560598;28;20226;-72
2020/12/02 12:35:18;;;;;;;29.73;15.67;;;;;;;;;;10548873;28;20203;-73
2020/12/02 12:40:22;;;;;;;27.53;15.07;;;;;;;;;;10546877;28;20238;-73
2020/12/02 12:45:29;;;;;;;29.60;15.63;;;;;;;;;;10549747;28;20708;-70
2020/12/02 12:50:30;;;;;;;27.87;14.90;;;;;;;;;;10543742;28;20631;-72
2020/12/02 12:55:36;;;;;;;25.27;14.27;;;;;;;;;;10544201;28;20418;-72
2020/12/02 13:00:41;;;;;;;26.87;14.27;;;;;;;;;;10548837;28;20694;-73
2020/12/02 13:05:46;;;;;;;32.17;15.80;;;;;;;;;;10530552;28;20206;-71
2020/12/02 13:10:53;;;;;;;26.67;15.40;;;;;;;;;;10545973;28;20246;-71
2020/12/02 13:16:03;;;;;;;28.63;16.03;;;;;;;;;;10550448;28;20195;-71
2020/12/02 13:21:07;;;;;;;28.17;15.57;;;;;;;;;;10549892;28;20226;-72
2020/12/02 13:26:11;;;;;;;28.03;14.53;;;;;;;;;;10553220;28;20199;-72
2020/12/02 13:31:15;;;;;;;28.20;15.43;;;;;;;;;;10552910;28;20211;-72
2020/12/02 13:36:19;;;;;;;28.07;14.57;;;;;;;;;;10559100;28;20516;-72
2020/12/02 13:41:28;;;;;;;28.47;14.83;;;;;;;;;;10569361;28;20247;-74
2020/12/02 13:46:31;;;;;;;49.20;17.33;;;;;;;;;;10560988;28;20191;-73
2020/12/02 13:51:39;;;;;;;27.70;14.70;;;;;;;;;;10567194;28;20275;-74
2020/12/02 13:56:43;;;;;;;29.33;14.57;;;;;;;;;;10557484;28;20285;-71
2020/12/02 14:01:50;;;;;;;41.90;16.00;;;;;;;;;;10560762;28;20691;-71
2020/12/02 14:06:54;;;;;;;27.87;14.43;;;;;;;;;;10559217;28;20247;-73
2020/12/02 14:11:57;;;;;;;27.17;14.20;;;;;;;;;;10557442;28;20242;-73
2020/12/02 14:17:00;;;;;;;27.87;13.33;;;;;;;;;;10562180;28;20231;-73
2020/12/02 14:22:04;;;;;;;23.93;12.83;;;;;;;;;;10560271;28;20227;-71
2020/12/02 14:27:06;;;;;;;27.17;13.90;;;;;;;;;;10560881;28;20199;-72
2020/12/02 14:32:09;;;;;;;27.37;13.83;;;;;;;;;;10561212;28;20197;-73
2020/12/02 14:37:11;;;;;;;28.07;13.20;;;;;;;;;;10564579;28;20202;-74
2020/12/02 14:42:14;;;;;;;25.57;13.40;;;;;;;;;;10559172;28;20214;-73
2020/12/02 14:47:16;;;;;;;25.73;13.73;;;;;;;;;;10556049;28;20316;-72
2020/12/02 14:52:18;;;;;;;28.97;14.33;;;;;;;;;;10557363;28;20205;-72
2020/12/02 14:57:28;;;;;;;28.47;13.23;;;;;;;;;;10551934;28;20218;-72
2020/12/02 15:02:34;;;;;;;27.00;13.90;;;;;;;;;;10550329;28;20345;-71
2020/12/02 15:07:45;;;;;;;27.70;13.53;;;;;;;;;;10555338;28;20231;-71
2020/12/02 15:12:47;;;;;;;30.53;14.17;;;;;;;;;;10548704;28;21001;-72
2020/12/02 15:17:50;;;;;;;27.03;13.17;;;;;;;;;;10557577;28;20218;-71
2020/12/02 15:22:53;;;;;;;28.70;13.70;;;;;;;;;;10548791;28;20223;-71
2020/12/02 15:27:54;;;;;;;28.17;13.43;;;;;;;;;;10559084;28;20230;-72
2020/12/02 15:33:00;;;;;;;26.97;14.47;;;;;;;;;;10553191;28;20658;-72
2020/12/02 15:38:05;;;;;;;33.67;16.33;;;;;;;;;;10556028;28;20231;-70
2020/12/02 15:43:25;;;;;;;28.47;13.47;;;;;;;;;;10571827;28;20218;-71
2020/12/02 15:48:29;;;;;;;26.17;12.90;;;;;;;;;;10551561;28;20294;-72
2020/12/02 15:53:38;;;;;;;29.33;13.90;;;;;;;;;;10558352;28;20536;-72
2020/12/02 15:59:00;;;;;;;28.30;14.07;;;;;;;;;;10558204;28;20690;-73
2020/12/02 16:04:10;;;;;;;33.30;14.60;;;;;;;;;;10559595;28;20226;-72
2020/12/02 16:09:12;;;;;;;25.43;13.60;;;;;;;;;;10560464;28;20356;-72
2020/12/02 16:14:15;;;;;;;30.47;15.20;;;;;;;;;;10549697;28;20195;-73
2020/12/02 16:19:20;;;;;;;29.63;14.23;;;;;;;;;;10550603;28;20216;-72
2020/12/02 16:24:24;;;;;;;28.43;14.03;;;;;;;;;;10560229;28;20230;-73
2020/12/02 16:29:27;;;;;;;30.20;14.63;;;;;;;;;;10556142;28;20230;-72
2020/12/02 16:34:30;;;;;;;29.97;14.77;;;;;;;;;;10547645;28;20214;-73
2020/12/02 16:39:33;;;;;;;28.83;13.97;;;;;;;;;;10547424;28;20223;-73
2020/12/02 16:44:39;;;;;;;29.47;14.90;;;;;;;;;;10554957;28;20252;-73
2020/12/02 16:49:50;;;;;;;34.20;16.50;;;;;;;;;;10545920;28;20599;-72
2020/12/02 16:55:06;;;;;;;33.77;16.10;;;;;;;;;;10555785;28;20210;-71
2020/12/02 17:00:12;;;;;;;31.37;15.37;;;;;;;;;;10545255;28;20230;-72
2020/12/02 17:05:17;;;;;;;35.90;16.40;;;;;;;;;;10546893;28;20203;-72
2020/12/02 17:10:20;;;;;;;33.00;15.27;;;;;;;;;;10542545;28;20690;-72
2020/12/02 17:15:25;;;;;;;31.93;15.80;;;;;;;;;;10556544;28;20203;-72
2020/12/02 17:20:34;;;;;;;35.03;15.17;;;;;;;;;;10550718;28;20211;-72
2020/12/02 17:25:39;;;;;;;33.97;16.33;;;;;;;;;;10551959;28;20471;-72
2020/12/02 17:30:58;;;;;;;38.13;16.50;;;;;;;;;;10556106;28;20223;-72
2020/12/02 17:36:06;;;;;;;34.90;16.30;;;;;;;;;;10540544;28;20205;-73
2020/12/02 17:41:15;;;;;;;37.77;18.00;;;;;;;;;;10558143;28;20227;-72
2020/12/02 17:46:21;;;;;;;39.33;17.17;;;;;;;;;;10556900;28;20223;-73
2020/12/02 17:51:29;;;;;;;37.73;15.80;;;;;;;;;;10558793;28;20219;-74
2020/12/02 17:56:33;;;;;;;36.87;16.87;;;;;;;;;;10557883;28;20749;-72
2020/12/02 18:02:08;;;;;;;39.93;17.30;;;;;;;;;;10552515;28;20211;-73
2020/12/02 18:07:23;;;;;;;37.77;16.97;;;;;;;;;;10553872;28;20741;-71
2020/12/02 18:12:29;;;;;;;39.50;17.80;;;;;;;;;;10540346;28;20213;-73
2020/12/02 18:17:46;;;;;;;32.90;16.37;;;;;;;;;;10552079;28;20223;-73
2020/12/02 18:22:52;;;;;;;40.97;19.63;;;;;;;;;;10552445;28;20247;-73
2020/12/02 18:34:00;;;;;;;34.60;16.90;;;;;;;;;;10554423;28;20199;-75
2020/12/02 18:39:09;;;;;;;37.20;18.20;;;;;;;;;;10546165;28;20647;-75
2020/12/02 18:44:11;;;;;;;35.53;17.90;;;;;;;;;;10555453;28;20240;-75
2020/12/02 18:49:16;;;;;;;38.13;17.20;;;;;;;;;;10556179;28;20223;-74
2020/12/02 18:54:19;;;;;;;38.97;17.83;;;;;;;;;;10531168;28;20234;-72
2020/12/02 18:59:24;;;;;;;40.03;18.00;;;;;;;;;;10544606;28;20215;-74
2020/12/02 19:04:27;;;;;;;37.47;16.97;;;;;;;;;;10540732;28;20219;-74
2020/12/02 19:09:29;;;;;;;36.80;17.80;;;;;;;;;;10557423;28;20229;-73
2020/12/02 19:14:42;;;;;;;34.70;17.33;;;;;;;;;;10552009;28;20210;-72
2020/12/02 19:19:57;;;;;;;35.73;17.60;;;;;;;;;;10554283;28;20697;-73
2020/12/02 19:25:07;;;;;;;36.17;16.87;;;;;;;;;;10575765;28;20254;-73
2020/12/02 19:30:14;;;;;;;35.30;17.60;;;;;;;;;;10551986;28;20219;-74
2020/12/02 19:35:20;;;;;;;33.43;16.43;;;;;;;;;;10559621;28;20659;-74
2020/12/02 19:40:27;;;;;;;40.23;18.63;;;;;;;;;;10558006;28;20220;-73
2020/12/02 19:45:29;;;;;;;36.70;17.43;;;;;;;;;;10553274;28;20710;-73
2020/12/02 19:50:31;;;;;;;36.20;17.40;;;;;;;;;;10561391;28;20982;-74
2020/12/02 19:55:38;;;;;;;34.13;17.83;;;;;;;;;;10556885;28;20237;-74
2020/12/02 20:00:44;;;;;;;33.17;16.33;;;;;;;;;;10562862;28;20243;-72
2020/12/02 20:06:01;;;;;;;34.03;17.03;;;;;;;;;;10558969;28;20641;-73
2020/12/02 20:11:08;;;;;;;36.03;18.30;;;;;;;;;;10574220;28;20254;-73
2020/12/02 20:16:13;;;;;;;39.17;17.43;;;;;;;;;;10547376;28;20187;-73
2020/12/02 20:21:17;;;;;;;39.33;19.60;;;;;;;;;;10542197;28;20221;-73
2020/12/02 20:26:21;;;;;;;41.20;19.40;;;;;;;;;;10563436;28;20214;-72
2020/12/02 20:31:25;;;;;;;34.07;16.63;;;;;;;;;;10545541;28;20658;-71
2020/12/02 20:36:26;;;;;;;38.37;17.33;;;;;;;;;;10552556;28;20239;-72
2020/12/02 20:41:32;;;;;;;33.90;15.20;;;;;;;;;;10547624;28;20230;-72
2020/12/02 20:46:36;;;;;;;40.97;18.80;;;;;;;;;;10559042;28;20191;-71
2020/12/02 20:51:44;;;;;;;38.17;18.97;;;;;;;;;;10552445;28;20702;-72
2020/12/02 20:56:47;;;;;;;44.23;19.50;;;;;;;;;;10560212;28;20211;-71
2020/12/02 21:01:52;;;;;;;41.37;18.63;;;;;;;;;;10550532;28;20219;-73
2020/12/02 21:06:55;;;;;;;40.60;18.70;;;;;;;;;;10557239;28;20199;-74
2020/12/02 21:11:57;;;;;;;41.53;18.93;;;;;;;;;;10563562;28;20338;-73
2020/12/02 21:17:03;;;;;;;40.30;17.93;;;;;;;;;;10544558;28;20267;-73
2020/12/02 21:22:10;;;;;;;42.10;18.20;;;;;;;;;;10549679;28;20333;-72
2020/12/02 21:27:14;;;;;;;42.17;19.60;;;;;;;;;;10546761;28;20212;-74
2020/12/02 21:32:25;;;;;;;38.93;19.13;;;;;;;;;;10558343;28;20563;-75
2020/12/02 21:37:29;;;;;;;34.83;16.03;;;;;;;;;;10562207;28;20268;-74
2020/12/02 21:42:40;;;;;;;39.80;17.57;;;;;;;;;;10568250;28;20305;-75
2020/12/02 21:47:47;;;;;;;37.50;18.17;;;;;;;;;;10573970;28;20532;-73
2020/12/02 21:53:02;;;;;;;38.50;17.03;;;;;;;;;;10573932;28;20688;-74
2020/12/02 21:58:10;;;;;;;38.37;16.90;;;;;;;;;;10572012;28;20227;-72
2020/12/02 22:03:25;;;;;;;47.23;20.70;;;;;;;;;;10568803;28;20215;-72
2020/12/02 22:08:31;;;;;;;48.30;20.80;;;;;;;;;;10576572;28;20283;-71
2020/12/02 22:13:36;;;;;;;43.17;20.10;;;;;;;;;;10572475;28;20198;-71
2020/12/02 22:18:45;;;;;;;44.00;19.57;;;;;;;;;;10568647;28;20702;-72
2020/12/02 22:23:55;;;;;;;46.00;19.90;;;;;;;;;;10575470;28;20219;-71
2020/12/02 22:29:00;;;;;;;41.50;18.87;;;;;;;;;;10566384;28;20234;-71
2020/12/02 22:34:23;;;;;;;43.60;20.97;;;;;;;;;;10570835;28;20199;-70
2020/12/02 22:39:35;;;;;;;38.57;18.40;;;;;;;;;;10575627;28;20230;-72
2020/12/02 22:44:45;;;;;;;42.43;19.23;;;;;;;;;;10577496;28;20338;-72
2020/12/02 22:49:47;;;;;;;39.53;18.93;;;;;;;;;;10574365;28;20690;-70
2020/12/02 22:54:49;;;;;;;41.50;18.73;;;;;;;;;;10577884;28;20203;-71
2020/12/02 22:59:55;;;;;;;43.00;19.13;;;;;;;;;;10582784;28;20268;-72
2020/12/02 23:04:57;;;;;;;41.80;19.80;;;;;;;;;;10581864;28;20219;-70
2020/12/02 23:10:03;;;;;;;41.50;18.83;;;;;;;;;;10578141;28;20240;-70
2020/12/02 23:15:10;;;;;;;37.77;18.90;;;;;;;;;;10578369;28;20673;-74
2020/12/02 23:20:15;;;;;;;40.77;19.23;;;;;;;;;;10573834;28;20215;-70
2020/12/02 23:25:18;;;;;;;36.03;16.77;;;;;;;;;;10575483;28;20233;-70
2020/12/02 23:30:37;;;;;;;38.40;18.77;;;;;;;;;;10565094;28;20219;-69
2020/12/02 23:35:45;;;;;;;38.50;18.30;;;;;;;;;;10550786;28;20615;-70
2020/12/02 23:40:47;;;;;;;34.80;16.80;;;;;;;;;;10558547;28;20216;-74
2020/12/02 23:45:53;;;;;;;40.17;18.03;;;;;;;;;;10559275;28;20219;-73
2020/12/02 23:50:55;;;;;;;35.57;17.90;;;;;;;;;;10550348;28;20215;-73
2020/12/02 23:55:58;;;;;;;34.93;17.07;;;;;;;;;;10551457;28;20205;-73
